Weather at Club Fenix ULM

Public forecast

Using degrees Celsius for public forecast. Weather courtesy of forecast.io.

Closest aviation weather report (METAR) to Club Fenix ULM

Closest report is Valencia Airport, 18.3 nm (33.9 km) ESE. Retrieved 2021/06/21 09:30 UTC (27 minutes ago):

LEVC 210930Z 27012KT 240V300 9999 FEW035 27/11 Q1010 NOSIG

Closest aviation forecast (TAF) to Club Fenix ULM

Closest forecast is Valencia Airport, 18.3 nm (33.9 km) ESE. Retrieved 2021/06/21 06:27 UTC (3 hours ago):

TAF LEVC 210500Z 2106/2206 VRB05KT 9999 FEW040 TX32/2115Z TN19/2106Z BECMG 2108/2110 27010KT PROB40 TEMPO 2114/2120 14010KT